This is the latest recevied weather packets stored in our database for station/object DL6MM-4. If no packets are shown the sender has not sent any weather packets the latest 10 day(s).
| Time | Temp. | Humidity | Pressure | Rain* | Wind** | Luminosity | Snow |
|---|---|---|---|---|---|---|---|
| 1777501154 | 5° C | 70% | 1028.5 hPa | 0 mm | - | - | - |
| 1777500554 | 5.56° C | 68% | 1028.5 hPa | 0 mm | - | - | - |
| 1777499954 | 5.56° C | 70% | 1028.4 hPa | 0 mm | - | - | - |
| 1777499354 | 5.56° C | 68% | 1028.3 hPa | 0 mm | - | - | - |
| 1777498754 | 6.11° C | 65% | 1028.2 hPa | 0 mm | - | - | - |
| 1777498154 | 6.11° C | 65% | 1028.2 hPa | 0 mm | - | - | - |
| 1777497554 | 7.22° C | 59% | 1028.3 hPa | 0 mm | - | - | - |
| 1777496954 | 7.78° C | 56% | 1028.2 hPa | 0 mm | - | - | - |
| 1777496354 | 7.78° C | 54% | 1028 hPa | 0 mm | - | - | - |
| 1777495754 | 8.33° C | 54% | 1028 hPa | 0 mm | - | - | - |
| 1777495154 | 8.33° C | 54% | 1028 hPa | 0 mm | - | - | - |
| 1777494554 | 8.89° C | 53% | 1027.9 hPa | 0 mm | - | - | - |
| 1777493954 | 8.89° C | 52% | 1027.9 hPa | 0 mm | - | - | - |
| 1777493354 | 9.44° C | 51% | 1027.9 hPa | 0 mm | - | - | - |
| 1777492754 | 10° C | 48% | 1027.5 hPa | 0 mm | - | - | - |
| 1777492154 | 10° C | 49% | 1027.5 hPa | 0 mm | - | - | - |
| 1777491554 | 10° C | 49% | 1027.5 hPa | 0 mm | - | - | - |
| 1777490954 | 10.56° C | 47% | 1027.4 hPa | 0 mm | - | - | - |
| 1777490354 | 10.56° C | 46% | 1027.3 hPa | 0 mm | - | - | - |
| 1777489754 | 11.11° C | 45% | 1027.2 hPa | 0 mm | - | - | - |
| 1777489154 | 11.67° C | 44% | 1027 hPa | 0 mm | - | - | - |
| 1777488554 | 11.67° C | 44% | 1027 hPa | 0 mm | - | - | - |
| 1777487954 | 12.22° C | 42% | 1027 hPa | 0 mm | - | - | - |
| 1777487354 | 12.22° C | 42% | 1026.9 hPa | 0 mm | - | - | - |
| 1777486754 | 12.78° C | 41% | 1026.8 hPa | 0 mm | - | - | - |
* Rain latest hour (hover to see other rain measurements)
** Current wind speed in m/s (hover to see current wind gust speed)